sensor_id;sensor_type;location;lat;lon;timestamp;P1;durP1;ratioP1;P2;durP2;ratioP2
52210;SDS011;38179;52.756;6.906;2022-09-06T00:01:11;25.15;;;22.95;;
52210;SDS011;38179;52.756;6.906;2022-09-06T00:03:38;25.63;;;23.33;;
52210;SDS011;38179;52.756;6.906;2022-09-06T00:06:15;25.55;;;23.25;;
52210;SDS011;38179;52.756;6.906;2022-09-06T00:08:44;25.50;;;23.20;;
52210;SDS011;38179;52.756;6.906;2022-09-06T00:11:11;25.58;;;23.40;;
52210;SDS011;38179;52.756;6.906;2022-09-06T00:13:38;25.20;;;23.13;;
52210;SDS011;38179;52.756;6.906;2022-09-06T00:16:05;25.88;;;23.67;;
52210;SDS011;38179;52.756;6.906;2022-09-06T00:18:35;24.77;;;22.98;;
52210;SDS011;38179;52.756;6.906;2022-09-06T00:21:02;24.45;;;22.55;;
52210;SDS011;38179;52.756;6.906;2022-09-06T00:23:29;24.95;;;23.02;;
52210;SDS011;38179;52.756;6.906;2022-09-06T00:26:02;24.58;;;22.58;;
52210;SDS011;38179;52.756;6.906;2022-09-06T00:28:29;24.60;;;22.60;;
52210;SDS011;38179;52.756;6.906;2022-09-06T00:30:55;24.88;;;22.70;;
52210;SDS011;38179;52.756;6.906;2022-09-06T00:33:22;25.73;;;23.70;;
52210;SDS011;38179;52.756;6.906;2022-09-06T00:35:48;25.08;;;23.15;;
52210;SDS011;38179;52.756;6.906;2022-09-06T00:38:14;25.02;;;23.13;;
52210;SDS011;38179;52.756;6.906;2022-09-06T00:40:40;24.77;;;22.67;;
52210;SDS011;38179;52.756;6.906;2022-09-06T00:43:06;24.42;;;22.52;;
52210;SDS011;38179;52.756;6.906;2022-09-06T00:45:32;24.17;;;22.25;;
52210;SDS011;38179;52.756;6.906;2022-09-06T00:47:58;24.85;;;22.92;;
52210;SDS011;38179;52.756;6.906;2022-09-06T00:50:26;25.60;;;23.55;;
52210;SDS011;38179;52.756;6.906;2022-09-06T00:52:53;24.92;;;23.02;;
52210;SDS011;38179;52.756;6.906;2022-09-06T00:55:19;24.90;;;23.00;;
52210;SDS011;38179;52.756;6.906;2022-09-06T00:57:46;24.40;;;22.60;;
52210;SDS011;38179;52.756;6.906;2022-09-06T01:00:15;25.65;;;23.55;;
52210;SDS011;38179;52.756;6.906;2022-09-06T01:02:43;25.48;;;23.38;;
52210;SDS011;38179;52.756;6.906;2022-09-06T01:05:09;25.50;;;23.38;;
52210;SDS011;38179;52.756;6.906;2022-09-06T01:07:47;24.48;;;22.65;;
52210;SDS011;38179;52.756;6.906;2022-09-06T01:13:35;24.80;;;22.63;;
52210;SDS011;38179;52.756;6.906;2022-09-06T01:19:19;24.55;;;22.65;;
52210;SDS011;38179;52.756;6.906;2022-09-06T01:24:48;24.83;;;22.98;;
52210;SDS011;38179;52.756;6.906;2022-09-06T01:30:17;24.85;;;22.85;;
52210;SDS011;38179;52.756;6.906;2022-09-06T01:37:57;24.90;;;22.85;;
52210;SDS011;38179;52.756;6.906;2022-09-06T01:40:24;24.20;;;22.40;;
52210;SDS011;38179;52.756;6.906;2022-09-06T01:42:51;25.35;;;23.35;;
52210;SDS011;38179;52.756;6.906;2022-09-06T01:45:19;25.25;;;23.38;;
52210;SDS011;38179;52.756;6.906;2022-09-06T01:48:15;25.60;;;23.70;;
52210;SDS011;38179;52.756;6.906;2022-09-06T01:53:57;25.70;;;23.80;;
52210;SDS011;38179;52.756;6.906;2022-09-06T02:01:45;26.25;;;24.05;;
52210;SDS011;38179;52.756;6.906;2022-09-06T02:06:51;25.30;;;23.38;;
52210;SDS011;38179;52.756;6.906;2022-09-06T02:09:22;25.77;;;23.73;;
52210;SDS011;38179;52.756;6.906;2022-09-06T02:11:58;25.83;;;23.92;;
52210;SDS011;38179;52.756;6.906;2022-09-06T02:14:27;25.02;;;23.05;;
52210;SDS011;38179;52.756;6.906;2022-09-06T02:22:13;25.25;;;23.35;;
52210;SDS011;38179;52.756;6.906;2022-09-06T02:24:43;25.95;;;23.88;;
52210;SDS011;38179;52.756;6.906;2022-09-06T02:27:09;25.25;;;23.27;;
52210;SDS011;38179;52.756;6.906;2022-09-06T02:29:36;24.95;;;23.05;;
52210;SDS011;38179;52.756;6.906;2022-09-06T02:34:32;26.25;;;23.90;;
52210;SDS011;38179;52.756;6.906;2022-09-06T02:37:02;26.10;;;24.20;;
52210;SDS011;38179;52.756;6.906;2022-09-06T02:39:29;25.30;;;23.40;;
52210;SDS011;38179;52.756;6.906;2022-09-06T02:41:54;25.70;;;23.63;;
52210;SDS011;38179;52.756;6.906;2022-09-06T02:44:20;25.35;;;23.50;;
52210;SDS011;38179;52.756;6.906;2022-09-06T02:46:46;24.60;;;22.80;;
52210;SDS011;38179;52.756;6.906;2022-09-06T02:49:12;25.13;;;23.30;;
52210;SDS011;38179;52.756;6.906;2022-09-06T02:51:38;25.95;;;23.75;;
52210;SDS011;38179;52.756;6.906;2022-09-06T02:54:05;26.67;;;24.33;;
52210;SDS011;38179;52.756;6.906;2022-09-06T02:56:31;26.20;;;24.20;;
52210;SDS011;38179;52.756;6.906;2022-09-06T02:58:58;25.75;;;23.85;;
52210;SDS011;38179;52.756;6.906;2022-09-06T03:01:25;26.77;;;24.33;;
52210;SDS011;38179;52.756;6.906;2022-09-06T03:03:50;26.30;;;24.08;;
52210;SDS011;38179;52.756;6.906;2022-09-06T03:06:16;26.85;;;24.77;;
52210;SDS011;38179;52.756;6.906;2022-09-06T03:08:42;25.10;;;23.20;;
52210;SDS011;38179;52.756;6.906;2022-09-06T03:11:08;26.10;;;24.02;;
52210;SDS011;38179;52.756;6.906;2022-09-06T03:13:34;25.58;;;23.67;;
52210;SDS011;38179;52.756;6.906;2022-09-06T03:16:00;25.95;;;24.05;;
52210;SDS011;38179;52.756;6.906;2022-09-06T03:18:27;25.92;;;23.85;;
52210;SDS011;38179;52.756;6.906;2022-09-06T03:20:54;26.20;;;24.17;;
52210;SDS011;38179;52.756;6.906;2022-09-06T03:23:22;26.20;;;24.23;;
52210;SDS011;38179;52.756;6.906;2022-09-06T03:25:49;25.98;;;24.08;;
52210;SDS011;38179;52.756;6.906;2022-09-06T03:28:15;26.95;;;24.55;;
52210;SDS011;38179;52.756;6.906;2022-09-06T03:30:46;26.90;;;24.70;;
52210;SDS011;38179;52.756;6.906;2022-09-06T03:33:13;25.88;;;23.77;;
52210;SDS011;38179;52.756;6.906;2022-09-06T03:35:39;25.48;;;23.48;;
52210;SDS011;38179;52.756;6.906;2022-09-06T03:38:06;26.30;;;24.10;;
52210;SDS011;38179;52.756;6.906;2022-09-06T03:40:32;26.52;;;24.42;;
52210;SDS011;38179;52.756;6.906;2022-09-06T03:42:58;25.60;;;23.55;;
52210;SDS011;38179;52.756;6.906;2022-09-06T03:45:23;26.05;;;23.98;;
52210;SDS011;38179;52.756;6.906;2022-09-06T03:47:49;26.20;;;23.83;;
52210;SDS011;38179;52.756;6.906;2022-09-06T03:50:15;25.95;;;23.85;;
52210;SDS011;38179;52.756;6.906;2022-09-06T03:52:41;26.10;;;23.83;;
52210;SDS011;38179;52.756;6.906;2022-09-06T03:55:07;25.08;;;22.85;;
52210;SDS011;38179;52.756;6.906;2022-09-06T03:57:33;26.77;;;24.02;;
52210;SDS011;38179;52.756;6.906;2022-09-06T03:59:59;26.33;;;23.90;;
52210;SDS011;38179;52.756;6.906;2022-09-06T04:02:25;26.13;;;23.60;;
52210;SDS011;38179;52.756;6.906;2022-09-06T04:04:50;25.73;;;23.67;;
52210;SDS011;38179;52.756;6.906;2022-09-06T04:07:20;26.52;;;24.42;;
52210;SDS011;38179;52.756;6.906;2022-09-06T04:09:47;25.88;;;23.88;;
52210;SDS011;38179;52.756;6.906;2022-09-06T04:12:13;26.00;;;23.83;;
52210;SDS011;38179;52.756;6.906;2022-09-06T04:14:38;26.15;;;23.95;;
52210;SDS011;38179;52.756;6.906;2022-09-06T04:17:04;26.85;;;24.55;;
52210;SDS011;38179;52.756;6.906;2022-09-06T04:19:30;26.00;;;23.77;;
52210;SDS011;38179;52.756;6.906;2022-09-06T04:21:56;27.25;;;24.77;;
52210;SDS011;38179;52.756;6.906;2022-09-06T04:24:22;27.60;;;25.17;;
52210;SDS011;38179;52.756;6.906;2022-09-06T04:26:48;26.65;;;24.42;;
52210;SDS011;38179;52.756;6.906;2022-09-06T04:29:13;26.02;;;23.70;;
52210;SDS011;38179;52.756;6.906;2022-09-06T04:31:39;26.48;;;24.02;;
52210;SDS011;38179;52.756;6.906;2022-09-06T04:34:05;26.20;;;24.13;;
52210;SDS011;38179;52.756;6.906;2022-09-06T04:36:31;27.60;;;25.08;;
52210;SDS011;38179;52.756;6.906;2022-09-06T04:38:57;25.67;;;23.70;;
52210;SDS011;38179;52.756;6.906;2022-09-06T04:41:23;27.73;;;25.17;;
52210;SDS011;38179;52.756;6.906;2022-09-06T04:43:48;28.15;;;25.58;;
52210;SDS011;38179;52.756;6.906;2022-09-06T04:46:24;25.58;;;23.48;;
52210;SDS011;38179;52.756;6.906;2022-09-06T04:48:52;25.80;;;23.70;;
52210;SDS011;38179;52.756;6.906;2022-09-06T04:51:19;27.52;;;25.17;;
52210;SDS011;38179;52.756;6.906;2022-09-06T04:53:46;26.13;;;24.13;;
52210;SDS011;38179;52.756;6.906;2022-09-06T04:56:22;27.42;;;24.88;;
52210;SDS011;38179;52.756;6.906;2022-09-06T04:58:50;27.13;;;24.48;;
52210;SDS011;38179;52.756;6.906;2022-09-06T05:01:17;25.60;;;23.70;;
52210;SDS011;38179;52.756;6.906;2022-09-06T05:03:44;26.02;;;24.02;;
52210;SDS011;38179;52.756;6.906;2022-09-06T05:06:20;26.20;;;24.08;;
52210;SDS011;38179;52.756;6.906;2022-09-06T05:08:48;26.13;;;24.13;;
52210;SDS011;38179;52.756;6.906;2022-09-06T05:11:15;27.02;;;24.83;;
52210;SDS011;38179;52.756;6.906;2022-09-06T05:13:41;27.23;;;24.95;;
52210;SDS011;38179;52.756;6.906;2022-09-06T05:16:07;26.60;;;24.55;;
52210;SDS011;38179;52.756;6.906;2022-09-06T05:18:34;26.73;;;24.33;;
52210;SDS011;38179;52.756;6.906;2022-09-06T05:21:00;26.63;;;24.52;;
52210;SDS011;38179;52.756;6.906;2022-09-06T05:23:26;26.65;;;24.55;;
52210;SDS011;38179;52.756;6.906;2022-09-06T05:25:53;27.70;;;25.30;;
52210;SDS011;38179;52.756;6.906;2022-09-06T05:28:19;27.23;;;24.80;;
52210;SDS011;38179;52.756;6.906;2022-09-06T05:30:45;28.40;;;26.00;;
52210;SDS011;38179;52.756;6.906;2022-09-06T05:33:12;28.45;;;26.13;;
52210;SDS011;38179;52.756;6.906;2022-09-06T05:35:42;29.15;;;26.33;;
52210;SDS011;38179;52.756;6.906;2022-09-06T05:38:08;29.10;;;26.70;;
52210;SDS011;38179;52.756;6.906;2022-09-06T05:40:34;27.10;;;25.02;;
52210;SDS011;38179;52.756;6.906;2022-09-06T05:43:00;27.30;;;25.08;;
52210;SDS011;38179;52.756;6.906;2022-09-06T05:45:26;29.02;;;26.55;;
52210;SDS011;38179;52.756;6.906;2022-09-06T05:47:51;28.58;;;26.23;;
52210;SDS011;38179;52.756;6.906;2022-09-06T05:50:18;28.65;;;26.23;;
52210;SDS011;38179;52.756;6.906;2022-09-06T05:52:44;27.70;;;25.40;;
52210;SDS011;38179;52.756;6.906;2022-09-06T05:55:09;27.83;;;25.52;;
52210;SDS011;38179;52.756;6.906;2022-09-06T05:57:35;27.50;;;25.30;;
52210;SDS011;38179;52.756;6.906;2022-09-06T06:00:02;28.27;;;25.92;;
52210;SDS011;38179;52.756;6.906;2022-09-06T06:02:29;27.67;;;25.40;;
52210;SDS011;38179;52.756;6.906;2022-09-06T06:04:55;29.02;;;26.63;;
52210;SDS011;38179;52.756;6.906;2022-09-06T06:07:22;29.48;;;26.88;;
52210;SDS011;38179;52.756;6.906;2022-09-06T06:09:48;29.55;;;27.13;;
52210;SDS011;38179;52.756;6.906;2022-09-06T06:12:14;28.63;;;25.95;;
52210;SDS011;38179;52.756;6.906;2022-09-06T06:14:40;30.50;;;27.55;;
52210;SDS011;38179;52.756;6.906;2022-09-06T06:17:06;29.08;;;26.48;;
52210;SDS011;38179;52.756;6.906;2022-09-06T06:19:32;28.25;;;25.77;;
52210;SDS011;38179;52.756;6.906;2022-09-06T06:21:58;28.63;;;26.30;;
52210;SDS011;38179;52.756;6.906;2022-09-06T06:24:23;27.60;;;25.35;;
52210;SDS011;38179;52.756;6.906;2022-09-06T06:26:50;28.38;;;26.15;;
52210;SDS011;38179;52.756;6.906;2022-09-06T06:29:16;30.33;;;27.85;;
52210;SDS011;38179;52.756;6.906;2022-09-06T06:31:41;32.10;;;29.02;;
52210;SDS011;38179;52.756;6.906;2022-09-06T06:34:07;31.02;;;28.42;;
52210;SDS011;38179;52.756;6.906;2022-09-06T06:36:34;34.05;;;30.83;;
52210;SDS011;38179;52.756;6.906;2022-09-06T06:39:01;31.90;;;28.83;;
52210;SDS011;38179;52.756;6.906;2022-09-06T06:41:29;32.50;;;29.87;;
52210;SDS011;38179;52.756;6.906;2022-09-06T06:44:00;29.17;;;26.88;;
52210;SDS011;38179;52.756;6.906;2022-09-06T06:46:28;27.98;;;25.67;;
52210;SDS011;38179;52.756;6.906;2022-09-06T06:48:56;29.73;;;27.10;;
52210;SDS011;38179;52.756;6.906;2022-09-06T06:51:23;30.50;;;27.75;;
52210;SDS011;38179;52.756;6.906;2022-09-06T06:53:51;30.33;;;27.63;;
52210;SDS011;38179;52.756;6.906;2022-09-06T06:56:20;30.00;;;27.17;;
52210;SDS011;38179;52.756;6.906;2022-09-06T06:58:47;29.90;;;27.15;;
52210;SDS011;38179;52.756;6.906;2022-09-06T07:01:15;30.83;;;27.92;;
52210;SDS011;38179;52.756;6.906;2022-09-06T07:03:41;30.55;;;27.60;;
52210;SDS011;38179;52.756;6.906;2022-09-06T07:06:08;29.23;;;26.83;;
52210;SDS011;38179;52.756;6.906;2022-09-06T07:08:34;30.50;;;28.10;;
52210;SDS011;38179;52.756;6.906;2022-09-06T07:11:02;29.87;;;27.30;;
52210;SDS011;38179;52.756;6.906;2022-09-06T07:13:29;30.02;;;27.52;;
52210;SDS011;38179;52.756;6.906;2022-09-06T07:16:05;30.42;;;27.92;;
52210;SDS011;38179;52.756;6.906;2022-09-06T07:18:39;31.20;;;28.58;;
52210;SDS011;38179;52.756;6.906;2022-09-06T07:21:13;32.28;;;29.38;;
52210;SDS011;38179;52.756;6.906;2022-09-06T07:23:40;32.05;;;29.40;;
52210;SDS011;38179;52.756;6.906;2022-09-06T07:26:07;30.95;;;28.58;;
52210;SDS011;38179;52.756;6.906;2022-09-06T07:28:39;32.47;;;29.75;;
52210;SDS011;38179;52.756;6.906;2022-09-06T07:31:05;32.05;;;29.25;;
52210;SDS011;38179;52.756;6.906;2022-09-06T07:33:30;31.38;;;28.75;;
52210;SDS011;38179;52.756;6.906;2022-09-06T07:38:26;31.60;;;29.05;;
52210;SDS011;38179;52.756;6.906;2022-09-06T07:40:54;31.55;;;28.80;;
52210;SDS011;38179;52.756;6.906;2022-09-06T07:43:21;31.80;;;29.17;;
52210;SDS011;38179;52.756;6.906;2022-09-06T07:45:48;32.53;;;29.85;;
52210;SDS011;38179;52.756;6.906;2022-09-06T07:48:21;31.55;;;28.98;;
52210;SDS011;38179;52.756;6.906;2022-09-06T07:50:47;34.35;;;31.10;;
52210;SDS011;38179;52.756;6.906;2022-09-06T07:53:13;33.35;;;30.55;;
52210;SDS011;38179;52.756;6.906;2022-09-06T07:55:39;32.85;;;29.45;;
52210;SDS011;38179;52.756;6.906;2022-09-06T07:58:05;31.83;;;29.23;;
52210;SDS011;38179;52.756;6.906;2022-09-06T08:00:31;32.20;;;29.52;;
52210;SDS011;38179;52.756;6.906;2022-09-06T08:02:56;32.30;;;29.63;;
52210;SDS011;38179;52.756;6.906;2022-09-06T08:05:22;31.52;;;28.65;;
52210;SDS011;38179;52.756;6.906;2022-09-06T08:07:48;32.78;;;30.13;;
52210;SDS011;38179;52.756;6.906;2022-09-06T08:10:14;34.20;;;30.98;;
52210;SDS011;38179;52.756;6.906;2022-09-06T08:12:40;33.83;;;31.02;;
52210;SDS011;38179;52.756;6.906;2022-09-06T08:15:06;32.78;;;29.73;;
52210;SDS011;38179;52.756;6.906;2022-09-06T08:17:32;33.05;;;30.20;;
52210;SDS011;38179;52.756;6.906;2022-09-06T08:20:00;33.45;;;30.55;;
52210;SDS011;38179;52.756;6.906;2022-09-06T08:22:32;33.42;;;30.23;;
52210;SDS011;38179;52.756;6.906;2022-09-06T08:24:58;34.55;;;31.65;;
52210;SDS011;38179;52.756;6.906;2022-09-06T08:27:24;33.78;;;30.77;;
52210;SDS011;38179;52.756;6.906;2022-09-06T08:29:50;33.60;;;30.90;;
52210;SDS011;38179;52.756;6.906;2022-09-06T08:32:16;33.67;;;30.80;;
52210;SDS011;38179;52.756;6.906;2022-09-06T08:34:43;34.25;;;31.40;;
52210;SDS011;38179;52.756;6.906;2022-09-06T08:37:09;33.88;;;31.08;;
52210;SDS011;38179;52.756;6.906;2022-09-06T08:39:35;34.22;;;31.35;;
52210;SDS011;38179;52.756;6.906;2022-09-06T08:42:02;33.75;;;30.88;;
52210;SDS011;38179;52.756;6.906;2022-09-06T08:44:33;33.63;;;30.83;;
52210;SDS011;38179;52.756;6.906;2022-09-06T08:47:14;34.50;;;31.70;;
52210;SDS011;38179;52.756;6.906;2022-09-06T08:49:42;32.53;;;30.00;;
52210;SDS011;38179;52.756;6.906;2022-09-06T08:55:05;32.83;;;30.17;;
52210;SDS011;38179;52.756;6.906;2022-09-06T08:57:52;32.72;;;30.00;;
52210;SDS011;38179;52.756;6.906;2022-09-06T09:00:24;34.72;;;31.52;;
52210;SDS011;38179;52.756;6.906;2022-09-06T09:05:36;35.47;;;32.58;;
52210;SDS011;38179;52.756;6.906;2022-09-06T09:11:09;35.35;;;32.42;;
52210;SDS011;38179;52.756;6.906;2022-09-06T09:16:15;33.45;;;30.65;;
52210;SDS011;38179;52.756;6.906;2022-09-06T09:18:49;33.35;;;30.55;;
52210;SDS011;38179;52.756;6.906;2022-09-06T09:21:18;33.22;;;30.50;;
52210;SDS011;38179;52.756;6.906;2022-09-06T09:23:51;33.17;;;30.48;;
52210;SDS011;38179;52.756;6.906;2022-09-06T09:26:19;32.33;;;29.73;;
52210;SDS011;38179;52.756;6.906;2022-09-06T09:29:08;33.55;;;30.75;;
52210;SDS011;38179;52.756;6.906;2022-09-06T09:31:40;32.33;;;29.63;;
52210;SDS011;38179;52.756;6.906;2022-09-06T09:34:13;33.58;;;30.58;;
52210;SDS011;38179;52.756;6.906;2022-09-06T09:37:19;31.77;;;29.23;;
52210;SDS011;38179;52.756;6.906;2022-09-06T09:39:51;31.42;;;28.73;;
52210;SDS011;38179;52.756;6.906;2022-09-06T09:42:27;31.88;;;29.35;;
52210;SDS011;38179;52.756;6.906;2022-09-06T09:44:56;30.48;;;27.98;;
52210;SDS011;38179;52.756;6.906;2022-09-06T09:47:23;32.58;;;29.98;;
52210;SDS011;38179;52.756;6.906;2022-09-06T09:49:57;30.50;;;27.77;;
52210;SDS011;38179;52.756;6.906;2022-09-06T09:52:24;30.13;;;27.73;;
52210;SDS011;38179;52.756;6.906;2022-09-06T09:55:04;30.20;;;27.80;;
52210;SDS011;38179;52.756;6.906;2022-09-06T09:57:41;30.70;;;28.02;;
52210;SDS011;38179;52.756;6.906;2022-09-06T10:00:12;29.45;;;26.88;;
52210;SDS011;38179;52.756;6.906;2022-09-06T10:02:39;30.77;;;28.27;;
52210;SDS011;38179;52.756;6.906;2022-09-06T10:10:13;28.83;;;26.63;;
52210;SDS011;38179;52.756;6.906;2022-09-06T10:12:45;28.45;;;25.98;;
52210;SDS011;38179;52.756;6.906;2022-09-06T10:15:11;27.85;;;25.45;;
52210;SDS011;38179;52.756;6.906;2022-09-06T10:17:57;28.50;;;26.00;;
52210;SDS011;38179;52.756;6.906;2022-09-06T10:20:45;27.52;;;25.23;;
52210;SDS011;38179;52.756;6.906;2022-09-06T10:28:34;26.90;;;24.30;;
52210;SDS011;38179;52.756;6.906;2022-09-06T10:36:45;26.50;;;24.50;;
52210;SDS011;38179;52.756;6.906;2022-09-06T10:41:53;26.30;;;24.20;;
52210;SDS011;38179;52.756;6.906;2022-09-06T10:44:41;27.63;;;25.38;;
52210;SDS011;38179;52.756;6.906;2022-09-06T10:47:18;27.17;;;25.08;;
52210;SDS011;38179;52.756;6.906;2022-09-06T10:49:44;27.58;;;25.38;;
52210;SDS011;38179;52.756;6.906;2022-09-06T10:52:20;26.48;;;24.48;;
52210;SDS011;38179;52.756;6.906;2022-09-06T10:54:52;27.33;;;25.25;;
52210;SDS011;38179;52.756;6.906;2022-09-06T10:57:25;28.35;;;25.90;;
52210;SDS011;38179;52.756;6.906;2022-09-06T11:00:04;27.67;;;25.40;;
52210;SDS011;38179;52.756;6.906;2022-09-06T11:05:16;26.92;;;24.88;;
52210;SDS011;38179;52.756;6.906;2022-09-06T11:08:04;27.20;;;25.10;;
52210;SDS011;38179;52.756;6.906;2022-09-06T11:10:37;27.25;;;25.05;;
52210;SDS011;38179;52.756;6.906;2022-09-06T11:15:41;25.83;;;23.83;;
52210;SDS011;38179;52.756;6.906;2022-09-06T11:24:13;26.20;;;24.00;;
52210;SDS011;38179;52.756;6.906;2022-09-06T11:29:30;26.67;;;24.67;;
52210;SDS011;38179;52.756;6.906;2022-09-06T11:32:00;27.38;;;25.17;;
52210;SDS011;38179;52.756;6.906;2022-09-06T11:34:28;26.75;;;24.75;;
52210;SDS011;38179;52.756;6.906;2022-09-06T11:36:57;26.40;;;24.35;;
52210;SDS011;38179;52.756;6.906;2022-09-06T11:39:38;25.52;;;23.67;;
52210;SDS011;38179;52.756;6.906;2022-09-06T11:47:42;26.13;;;24.02;;
52210;SDS011;38179;52.756;6.906;2022-09-06T11:55:24;25.55;;;23.65;;
52210;SDS011;38179;52.756;6.906;2022-09-06T11:58:01;27.20;;;24.83;;
52210;SDS011;38179;52.756;6.906;2022-09-06T12:00:30;25.95;;;23.95;;
52210;SDS011;38179;52.756;6.906;2022-09-06T12:02:56;27.10;;;25.00;;
52210;SDS011;38179;52.756;6.906;2022-09-06T12:05:24;28.27;;;25.98;;
52210;SDS011;38179;52.756;6.906;2022-09-06T12:10:56;27.73;;;25.63;;
52210;SDS011;38179;52.756;6.906;2022-09-06T12:16:06;28.08;;;25.63;;
52210;SDS011;38179;52.756;6.906;2022-09-06T12:23:57;27.52;;;25.42;;
52210;SDS011;38179;52.756;6.906;2022-09-06T12:29:25;26.80;;;24.63;;
52210;SDS011;38179;52.756;6.906;2022-09-06T12:31:53;27.95;;;25.55;;
52210;SDS011;38179;52.756;6.906;2022-09-06T12:34:23;27.02;;;24.73;;
52210;SDS011;38179;52.756;6.906;2022-09-06T12:37:07;27.40;;;25.40;;
52210;SDS011;38179;52.756;6.906;2022-09-06T12:39:35;27.52;;;25.42;;
52210;SDS011;38179;52.756;6.906;2022-09-06T12:47:27;25.95;;;24.05;;
52210;SDS011;38179;52.756;6.906;2022-09-06T12:52:44;26.95;;;24.58;;
52210;SDS011;38179;52.756;6.906;2022-09-06T12:55:43;26.88;;;24.70;;
52210;SDS011;38179;52.756;6.906;2022-09-06T12:58:03;26.08;;;24.17;;
52210;SDS011;38179;52.756;6.906;2022-09-06T13:06:17;25.73;;;23.83;;
52210;SDS011;38179;52.756;6.906;2022-09-06T13:08:46;25.55;;;23.73;;
52210;SDS011;38179;52.756;6.906;2022-09-06T13:11:15;25.63;;;23.65;;
52210;SDS011;38179;52.756;6.906;2022-09-06T13:13:52;25.95;;;24.10;;
52210;SDS011;38179;52.756;6.906;2022-09-06T13:16:20;26.25;;;24.33;;
52210;SDS011;38179;52.756;6.906;2022-09-06T13:18:47;26.48;;;24.48;;
52210;SDS011;38179;52.756;6.906;2022-09-06T13:21:22;26.30;;;24.20;;
52210;SDS011;38179;52.756;6.906;2022-09-06T13:23:57;25.80;;;23.90;;
52210;SDS011;38179;52.756;6.906;2022-09-06T13:26:37;25.65;;;23.85;;
52210;SDS011;38179;52.756;6.906;2022-09-06T13:29:28;26.25;;;24.35;;
52210;SDS011;38179;52.756;6.906;2022-09-06T13:31:55;25.50;;;23.70;;
52210;SDS011;38179;52.756;6.906;2022-09-06T13:36:55;25.85;;;23.90;;
52210;SDS011;38179;52.756;6.906;2022-09-06T13:39:36;25.52;;;23.73;;
52210;SDS011;38179;52.756;6.906;2022-09-06T13:42:07;26.00;;;24.00;;
52210;SDS011;38179;52.756;6.906;2022-09-06T13:44:48;25.58;;;23.67;;
52210;SDS011;38179;52.756;6.906;2022-09-06T13:47:15;25.20;;;23.23;;
52210;SDS011;38179;52.756;6.906;2022-09-06T13:49:41;25.27;;;23.42;;
52210;SDS011;38179;52.756;6.906;2022-09-06T13:52:07;26.65;;;24.42;;
52210;SDS011;38179;52.756;6.906;2022-09-06T13:54:33;25.67;;;23.88;;
52210;SDS011;38179;52.756;6.906;2022-09-06T13:57:00;25.35;;;23.45;;
52210;SDS011;38179;52.756;6.906;2022-09-06T13:59:26;25.27;;;23.38;;
52210;SDS011;38179;52.756;6.906;2022-09-06T14:02:08;26.08;;;24.17;;
52210;SDS011;38179;52.756;6.906;2022-09-06T14:04:36;25.27;;;23.45;;
52210;SDS011;38179;52.756;6.906;2022-09-06T14:07:03;25.35;;;23.35;;
52210;SDS011;38179;52.756;6.906;2022-09-06T14:09:29;24.77;;;22.75;;
52210;SDS011;38179;52.756;6.906;2022-09-06T14:11:55;25.42;;;23.63;;
52210;SDS011;38179;52.756;6.906;2022-09-06T14:14:21;24.92;;;23.13;;
52210;SDS011;38179;52.756;6.906;2022-09-06T14:16:47;25.30;;;23.50;;
52210;SDS011;38179;52.756;6.906;2022-09-06T14:19:13;25.30;;;23.40;;
52210;SDS011;38179;52.756;6.906;2022-09-06T14:21:39;25.35;;;23.45;;
52210;SDS011;38179;52.756;6.906;2022-09-06T14:24:05;26.05;;;24.10;;
52210;SDS011;38179;52.756;6.906;2022-09-06T14:26:32;25.77;;;23.77;;
52210;SDS011;38179;52.756;6.906;2022-09-06T14:28:59;25.05;;;23.25;;
52210;SDS011;38179;52.756;6.906;2022-09-06T14:31:26;25.42;;;23.63;;
52210;SDS011;38179;52.756;6.906;2022-09-06T14:33:55;25.90;;;24.00;;
52210;SDS011;38179;52.756;6.906;2022-09-06T14:36:24;25.95;;;24.05;;
52210;SDS011;38179;52.756;6.906;2022-09-06T14:38:51;25.52;;;23.48;;
52210;SDS011;38179;52.756;6.906;2022-09-06T14:41:18;25.20;;;23.30;;
52210;SDS011;38179;52.756;6.906;2022-09-06T14:43:48;24.95;;;22.95;;
52210;SDS011;38179;52.756;6.906;2022-09-06T14:46:17;25.30;;;23.50;;
52210;SDS011;38179;52.756;6.906;2022-09-06T14:48:44;25.23;;;23.23;;
52210;SDS011;38179;52.756;6.906;2022-09-06T14:51:14;25.00;;;23.20;;
52210;SDS011;38179;52.756;6.906;2022-09-06T14:53:45;25.60;;;23.50;;
52210;SDS011;38179;52.756;6.906;2022-09-06T14:56:11;25.63;;;23.63;;
52210;SDS011;38179;52.756;6.906;2022-09-06T14:58:38;25.45;;;23.45;;
52210;SDS011;38179;52.756;6.906;2022-09-06T15:01:26;25.67;;;23.73;;
52210;SDS011;38179;52.756;6.906;2022-09-06T15:03:56;24.85;;;23.05;;
52210;SDS011;38179;52.756;6.906;2022-09-06T15:06:25;25.00;;;23.20;;
52210;SDS011;38179;52.756;6.906;2022-09-06T15:08:51;25.63;;;23.73;;
52210;SDS011;38179;52.756;6.906;2022-09-06T15:11:27;25.20;;;23.30;;
52210;SDS011;38179;52.756;6.906;2022-09-06T15:13:54;26.08;;;24.17;;
52210;SDS011;38179;52.756;6.906;2022-09-06T15:16:21;25.55;;;23.65;;
52210;SDS011;38179;52.756;6.906;2022-09-06T15:18:47;26.08;;;24.17;;
52210;SDS011;38179;52.756;6.906;2022-09-06T15:21:14;25.25;;;23.45;;
52210;SDS011;38179;52.756;6.906;2022-09-06T15:23:41;25.85;;;23.85;;
52210;SDS011;38179;52.756;6.906;2022-09-06T15:26:08;26.23;;;24.25;;
52210;SDS011;38179;52.756;6.906;2022-09-06T15:28:36;26.30;;;24.20;;
52210;SDS011;38179;52.756;6.906;2022-09-06T15:31:06;25.23;;;23.20;;
52210;SDS011;38179;52.756;6.906;2022-09-06T15:33:33;25.65;;;23.60;;
52210;SDS011;38179;52.756;6.906;2022-09-06T15:36:00;25.57;;;23.67;;
52210;SDS011;38179;52.756;6.906;2022-09-06T15:38:38;25.98;;;23.88;;
52210;SDS011;38179;52.756;6.906;2022-09-06T15:41:13;25.75;;;23.73;;
52210;SDS011;38179;52.756;6.906;2022-09-06T15:43:42;25.23;;;23.33;;
52210;SDS011;38179;52.756;6.906;2022-09-06T15:46:16;26.00;;;24.00;;
52210;SDS011;38179;52.756;6.906;2022-09-06T15:48:49;26.08;;;24.17;;
52210;SDS011;38179;52.756;6.906;2022-09-06T15:51:18;26.30;;;24.08;;
52210;SDS011;38179;52.756;6.906;2022-09-06T15:53:45;26.00;;;24.00;;
52210;SDS011;38179;52.756;6.906;2022-09-06T15:56:12;25.00;;;23.15;;
52210;SDS011;38179;52.756;6.906;2022-09-06T15:58:40;25.95;;;24.08;;
52210;SDS011;38179;52.756;6.906;2022-09-06T16:06:05;25.58;;;23.58;;
52210;SDS011;38179;52.756;6.906;2022-09-06T16:08:33;25.10;;;23.30;;
52210;SDS011;38179;52.756;6.906;2022-09-06T16:11:00;25.40;;;23.50;;
52210;SDS011;38179;52.756;6.906;2022-09-06T16:13:35;25.23;;;23.42;;
52210;SDS011;38179;52.756;6.906;2022-09-06T16:16:02;25.52;;;23.63;;
52210;SDS011;38179;52.756;6.906;2022-09-06T16:18:30;25.77;;;23.88;;
52210;SDS011;38179;52.756;6.906;2022-09-06T16:21:02;25.53;;;23.70;;
52210;SDS011;38179;52.756;6.906;2022-09-06T16:23:29;26.48;;;24.48;;
52210;SDS011;38179;52.756;6.906;2022-09-06T16:25:55;25.95;;;23.85;;
52210;SDS011;38179;52.756;6.906;2022-09-06T16:28:21;25.95;;;23.80;;
52210;SDS011;38179;52.756;6.906;2022-09-06T16:30:47;25.67;;;23.73;;
52210;SDS011;38179;52.756;6.906;2022-09-06T16:33:12;25.35;;;23.55;;
52210;SDS011;38179;52.756;6.906;2022-09-06T16:35:39;25.35;;;23.35;;
52210;SDS011;38179;52.756;6.906;2022-09-06T16:38:06;24.55;;;22.70;;
52210;SDS011;38179;52.756;6.906;2022-09-06T16:40:33;25.52;;;23.63;;